Time;durP1;ratioP1;P1;durP2;ratioP2;P2;SDS_P1;SDS_P2;PMS_P1;PMS_P2;Temp;Humidity;BMP_temperature;BMP_pressure;BME280_temperature;BME280_humidity;BME280_pressure;Samples;Min_cycle;Max_cycle;Signal;HPM_P1;HPM_P2
2022/06/07 00:00:18;;;;;;;;;8.50;7.25;;;;;13.72;63.81;99646.75;5098913;28;8866;-64
2022/06/07 00:02:46;;;;;;;;;7.00;6.25;;;;;13.67;64.60;99640.16;5098871;28;8834;-64
2022/06/07 00:05:14;;;;;;;;;7.00;7.00;;;;;13.61;63.99;99643.44;5108059;28;8910;-65
2022/06/07 00:07:44;;;;;;;;;6.25;6.00;;;;;13.55;64.04;99646.69;5119297;28;8842;-64
2022/06/07 00:10:11;;;;;;;;;5.00;4.00;;;;;13.51;64.25;99648.00;5110591;28;8838;-64
2022/06/07 00:12:40;;;;;;;;;8.50;7.00;;;;;13.44;64.19;99631.66;5098382;28;8911;-64
2022/06/07 00:15:08;;;;;;;;;4.00;3.25;;;;;13.41;64.59;99637.31;5098818;28;8976;-65
2022/06/07 00:17:36;;;;;;;;;4.00;4.00;;;;;13.36;64.45;99639.59;5112384;28;8836;-65
2022/06/07 00:20:05;;;;;;;;;7.50;6.75;;;;;13.33;64.85;99636.38;5119120;28;8824;-64
2022/06/07 00:22:32;;;;;;;;;3.50;0.75;;;;;13.28;64.87;99638.66;5104265;28;8806;-64
2022/06/07 00:25:00;;;;;;;;;9.25;8.50;;;;;13.26;65.17;99638.78;5098973;28;8810;-64
2022/06/07 00:27:28;;;;;;;;;7.00;7.00;;;;;13.23;64.82;99632.91;5098789;28;8864;-64
2022/06/07 00:29:56;;;;;;;;;6.50;5.50;;;;;13.19;64.82;99634.16;5116722;28;8808;-64
2022/06/07 00:32:24;;;;;;;;;9.25;8.50;;;;;13.15;64.78;99627.44;5116075;28;8834;-64
2022/06/07 00:34:52;;;;;;;;;7.00;7.00;;;;;13.11;64.96;99634.91;5098900;28;8968;-64
2022/06/07 00:37:20;;;;;;;;;8.00;7.00;;;;;13.08;65.70;99634.34;5095835;28;8843;-64
2022/06/07 00:39:48;;;;;;;;;6.00;6.00;;;;;13.05;65.50;99630.13;5095956;28;8892;-64
2022/06/07 00:42:16;;;;;;;;;9.50;8.00;;;;;13.03;65.49;99632.13;5112638;28;8823;-64
2022/06/07 00:44:44;;;;;;;;;6.25;5.00;;;;;13.02;65.15;99624.22;5114418;28;9480;-64
2022/06/07 00:47:12;;;;;;;;;9.25;6.75;;;;;13.00;65.20;99628.88;5098031;28;8822;-64
2022/06/07 00:49:39;;;;;;;;;9.50;6.50;;;;;12.98;65.32;99617.50;5098407;28;9496;-64
2022/06/07 00:52:07;;;;;;;;;6.50;6.00;;;;;12.97;65.49;99621.13;5099743;28;8814;-65
2022/06/07 00:54:35;;;;;;;;;6.00;6.00;;;;;12.97;65.30;99623.81;5097202;28;8814;-64
2022/06/07 00:57:03;;;;;;;;;7.00;6.25;;;;;12.95;65.52;99620.44;5098418;28;8814;-64
2022/06/07 00:59:31;;;;;;;;;6.50;5.25;;;;;12.93;65.58;99619.72;5098324;28;8814;-64
2022/06/07 01:01:59;;;;;;;;;9.50;8.00;;;;;12.91;65.56;99609.16;5114715;28;8829;-64
2022/06/07 01:04:27;;;;;;;;;7.00;7.00;;;;;12.89;65.75;99613.81;5118271;28;9501;-64
2022/06/07 01:12:25;;;;;;;;;8.00;8.00;;;;;12.85;66.30;99596.38;5090098;28;8825;-64
2022/06/07 01:14:53;;;;;;;;;9.00;6.75;;;;;12.84;65.90;99599.22;5103313;28;8819;-64
2022/06/07 01:17:20;;;;;;;;;9.75;9.00;;;;;12.82;65.82;99601.16;5117903;28;8854;-64
2022/06/07 01:19:48;;;;;;;;;3.00;2.00;;;;;12.83;66.20;99600.22;5118315;28;8824;-64
2022/06/07 01:22:16;;;;;;;;;10.00;8.50;;;;;12.82;66.29;99599.34;5118160;28;8838;-64
2022/06/07 01:24:44;;;;;;;;;9.50;8.50;;;;;12.81;65.88;99603.03;5113667;28;8808;-64
2022/06/07 01:27:12;;;;;;;;;6.75;6.00;;;;;12.81;65.96;99604.84;5097036;28;8826;-65
2022/06/07 01:29:41;;;;;;;;;8.50;6.50;;;;;12.80;66.28;99597.81;5111505;28;8878;-64
2022/06/07 01:32:09;;;;;;;;;4.00;4.00;;;;;12.78;65.54;99602.47;5115469;28;8816;-65
2022/06/07 01:34:37;;;;;;;;;9.50;9.25;;;;;12.75;65.85;99597.41;5117625;28;9645;-65
2022/06/07 01:37:05;;;;;;;;;3.50;3.00;;;;;12.72;66.29;99601.22;5117871;28;8824;-64
2022/06/07 01:42:18;;;;;;;;;1.00;1.00;;;;;12.71;65.92;99604.88;5103009;28;8861;-63
2022/06/07 01:44:47;;;;;;;;;6.25;5.00;;;;;12.72;66.16;99600.38;5115762;28;8835;-64
2022/06/07 01:47:14;;;;;;;;;4.00;4.00;;;;;12.73;66.39;99599.38;5117267;28;8817;-64
2022/06/07 01:49:42;;;;;;;;;5.00;5.00;;;;;12.73;66.26;99594.88;5116969;28;8808;-64
2022/06/07 01:52:10;;;;;;;;;6.75;5.50;;;;;12.73;66.05;99596.69;5113923;28;8824;-64
2022/06/07 01:54:38;;;;;;;;;4.00;4.00;;;;;12.75;65.89;99594.75;5112159;28;8822;-64
2022/06/07 01:57:07;;;;;;;;;0.75;0.75;;;;;12.77;66.43;99593.59;5097314;28;8841;-66
2022/06/07 01:59:35;;;;;;;;;3.00;3.00;;;;;12.84;65.93;99591.19;5097075;28;8818;-64
2022/06/07 02:02:03;;;;;;;;;3.75;3.75;;;;;12.89;65.76;99592.44;5096664;28;8826;-64
2022/06/07 02:04:30;;;;;;;;;3.75;3.75;;;;;12.95;65.45;99585.69;5096902;28;8977;-64
2022/06/07 02:06:58;;;;;;;;;1.50;1.50;;;;;12.98;65.28;99585.44;5096762;28;8833;-64
2022/06/07 02:09:27;;;;;;;;;3.00;3.00;;;;;13.01;65.62;99582.44;5098066;28;8830;-64
2022/06/07 02:11:55;;;;;;;;;4.00;4.00;;;;;13.01;65.33;99585.13;5113621;28;8940;-64
2022/06/07 02:14:23;;;;;;;;;4.00;4.00;;;;;13.00;65.76;99575.44;5107363;28;8820;-64
2022/06/07 02:16:50;;;;;;;;;4.00;4.00;;;;;13.00;65.83;99583.44;5116558;28;8939;-64
2022/06/07 02:19:19;;;;;;;;;4.00;4.00;;;;;12.97;65.43;99587.25;5117027;28;8805;-64
2022/06/07 02:21:46;;;;;;;;;6.25;6.00;;;;;12.97;65.86;99575.69;5104084;28;8848;-64
2022/06/07 02:24:14;;;;;;;;;4.50;3.50;;;;;12.96;65.90;99574.03;5096802;28;8846;-64
2022/06/07 02:26:43;;;;;;;;;1.00;1.00;;;;;12.98;65.71;99580.09;5117284;28;8839;-65
2022/06/07 02:29:11;;;;;;;;;0.25;0.00;;;;;12.99;65.95;99577.25;5117361;28;8835;-64
2022/06/07 02:31:39;;;;;;;;;4.00;3.00;;;;;13.03;65.37;99575.97;5116378;28;8840;-67
2022/06/07 02:34:08;;;;;;;;;4.00;4.00;;;;;13.06;65.38;99573.00;5116765;28;8939;-65
2022/06/07 02:36:36;;;;;;;;;4.00;4.00;;;;;13.09;65.56;99566.53;5115897;28;8850;-64
2022/06/07 02:39:04;;;;;;;;;3.00;3.00;;;;;13.14;65.61;99564.25;5116668;28;8966;-64
2022/06/07 02:41:31;;;;;;;;;2.00;2.00;;;;;13.17;64.91;99569.31;5115222;28;8812;-64
2022/06/07 02:43:59;;;;;;;;;4.00;3.50;;;;;13.19;64.98;99565.50;5099733;28;8828;-64
2022/06/07 02:46:33;;;;;;;;;5.00;5.00;;;;;13.22;64.95;99561.69;5106340;28;8949;-64
2022/06/07 02:49:01;;;;;;;;;3.75;3.75;;;;;13.23;65.25;99563.38;5109956;28;9461;-64
2022/06/07 02:51:29;;;;;;;;;4.00;3.50;;;;;13.24;64.94;99567.72;5116126;28;8831;-65
2022/06/07 02:54:04;;;;;;;;;3.25;3.25;;;;;13.25;65.37;99572.06;5116441;28;8820;-64
2022/06/07 02:56:32;;;;;;;;;3.50;3.50;;;;;13.27;64.82;99570.09;5099299;28;8919;-65
2022/06/07 02:58:59;;;;;;;;;3.00;3.00;;;;;13.28;64.97;99567.28;5079689;28;8818;-64
2022/06/07 03:01:28;;;;;;;;;4.00;3.75;;;;;13.29;65.41;99568.97;5107336;28;8836;-64
2022/06/07 03:03:58;;;;;;;;;3.25;3.25;;;;;13.32;64.95;99562.47;5115421;28;8843;-64
2022/06/07 03:06:26;;;;;;;;;5.00;3.50;;;;;13.35;65.12;99562.19;5115883;28;8901;-65
2022/06/07 03:08:54;;;;;;;;;4.00;4.00;;;;;13.36;65.17;99564.69;5116606;28;8838;-64
2022/06/07 03:11:22;;;;;;;;;3.75;3.00;;;;;13.37;64.74;99569.06;5099310;28;8844;-64
2022/06/07 03:13:49;;;;;;;;;5.00;3.00;;;;;13.37;64.97;99570.91;5100038;28;9012;-64
2022/06/07 03:16:17;;;;;;;;;4.00;3.00;;;;;13.36;65.22;99569.22;5105954;28;8901;-64
2022/06/07 03:18:46;;;;;;;;;3.00;2.00;;;;;13.33;65.58;99566.81;5115748;28;8808;-65
2022/06/07 03:21:13;;;;;;;;;3.25;3.00;;;;;13.32;65.31;99578.53;5116063;28;8815;-64
2022/06/07 03:23:41;;;;;;;;;1.00;1.00;;;;;13.31;65.60;99579.50;5116125;28;8862;-63
2022/06/07 03:26:10;;;;;;;;;4.00;3.00;;;;;13.30;65.48;99577.84;5113085;28;8832;-64
2022/06/07 03:28:38;;;;;;;;;3.00;3.00;;;;;13.30;65.53;99575.97;5115616;28;8839;-64
2022/06/07 03:31:06;;;;;;;;;3.75;3.00;;;;;13.31;65.84;99574.16;5115294;28;8866;-64
2022/06/07 03:33:35;;;;;;;;;4.50;4.50;;;;;13.31;66.24;99574.16;5111314;28;8916;-64
2022/06/07 03:36:03;;;;;;;;;4.50;4.50;;;;;13.33;66.31;99575.72;5094910;28;8806;-66
2022/06/07 03:38:31;;;;;;;;;6.25;6.00;;;;;13.34;65.69;99574.72;5095544;28;8964;-64
2022/06/07 03:40:59;;;;;;;;;4.00;4.00;;;;;13.35;65.93;99572.91;5096283;28;8848;-64
2022/06/07 03:43:26;;;;;;;;;3.75;3.75;;;;;13.39;66.13;99576.94;5115188;28;8926;-64
2022/06/07 03:45:54;;;;;;;;;6.00;4.00;;;;;13.40;66.14;99576.78;5103023;28;8826;-64
2022/06/07 03:48:23;;;;;;;;;3.00;3.00;;;;;13.42;66.00;99577.47;5109233;28;9049;-64
2022/06/07 03:50:50;;;;;;;;;6.00;4.50;;;;;13.44;66.59;99580.84;5106593;28;8968;-64
2022/06/07 03:53:18;;;;;;;;;3.00;3.00;;;;;13.48;66.58;99568.00;5094500;28;8821;-64
2022/06/07 03:55:47;;;;;;;;;6.00;6.00;;;;;13.53;66.62;99571.09;5100146;28;8831;-64
2022/06/07 03:58:15;;;;;;;;;3.00;3.00;;;;;13.57;66.04;99565.28;5098135;28;8844;-64
2022/06/07 04:00:43;;;;;;;;;3.00;3.00;;;;;13.61;66.18;99574.72;5093024;28;8988;-64
2022/06/07 04:03:11;;;;;;;;;4.00;4.00;;;;;13.66;66.32;99568.91;5094669;28;8867;-65
2022/06/07 04:05:39;;;;;;;;;4.75;3.75;;;;;13.70;66.45;99579.16;5106196;28;8827;-64
2022/06/07 04:08:13;;;;;;;;;4.00;4.00;;;;;13.74;66.60;99575.19;5114549;28;8966;-65
2022/06/07 04:10:41;;;;;;;;;4.00;4.00;;;;;13.79;66.42;99578.25;5115669;28;8954;-64
2022/06/07 04:13:08;;;;;;;;;4.00;4.00;;;;;13.82;66.41;99583.28;5100154;28;8899;-64
2022/06/07 04:15:36;;;;;;;;;5.00;3.50;;;;;13.86;66.51;99582.00;5108737;28;8842;-64
2022/06/07 04:18:05;;;;;;;;;4.00;3.25;;;;;13.91;66.51;99576.19;5119321;28;9527;-64
2022/06/07 04:20:32;;;;;;;;;5.50;5.50;;;;;13.96;66.71;99581.94;5119228;28;8847;-64
2022/06/07 04:23:00;;;;;;;;;2.00;2.00;;;;;14.02;66.20;99578.63;5119674;28;8852;-64
2022/06/07 04:25:29;;;;;;;;;1.00;1.00;;;;;14.07;66.47;99576.34;5118717;28;8859;-64
2022/06/07 04:27:57;;;;;;;;;4.00;4.00;;;;;14.12;66.39;99580.25;5118257;28;8828;-64
2022/06/07 04:30:25;;;;;;;;;3.00;3.00;;;;;14.19;66.52;99569.81;5118408;28;8862;-65
2022/06/07 04:32:53;;;;;;;;;4.00;4.00;;;;;14.25;66.37;99570.03;5117959;28;8959;-65
2022/06/07 04:35:20;;;;;;;;;2.00;2.00;;;;;14.33;66.24;99572.78;5118167;28;9615;-64
2022/06/07 04:37:49;;;;;;;;;6.00;4.00;;;;;14.40;66.46;99572.97;5118573;28;8828;-64
2022/06/07 04:40:16;;;;;;;;;3.25;3.00;;;;;14.45;65.80;99570.69;5118339;28;8831;-64
2022/06/07 04:42:45;;;;;;;;;4.00;4.00;;;;;14.52;66.03;99574.44;5118026;28;8834;-64
2022/06/07 04:45:14;;;;;;;;;3.25;3.25;;;;;14.59;65.26;99573.66;5109108;28;8814;-64
2022/06/07 04:47:42;;;;;;;;;0.25;0.25;;;;;14.65;66.00;99572.19;5097050;28;8822;-64
2022/06/07 04:50:10;;;;;;;;;2.50;2.50;;;;;14.72;65.30;99581.28;5097670;28;8864;-65
2022/06/07 04:52:38;;;;;;;;;3.00;3.00;;;;;14.78;65.44;99570.78;5097800;28;8830;-64
2022/06/07 04:55:05;;;;;;;;;2.50;2.00;;;;;14.84;65.16;99572.81;5097837;28;8976;-64
2022/06/07 04:57:33;;;;;;;;;3.00;3.00;;;;;14.92;64.82;99575.56;5097064;28;8960;-64
2022/06/07 05:00:01;;;;;;;;;5.00;3.25;;;;;15.00;64.54;99572.06;5096558;28;8862;-64
2022/06/07 05:02:29;;;;;;;;;3.00;3.00;;;;;15.07;64.64;99565.94;5097600;28;8822;-64
2022/06/07 05:04:57;;;;;;;;;3.75;3.75;;;;;15.15;64.39;99565.97;5097857;28;8838;-64
2022/06/07 05:07:25;;;;;;;;;1.00;1.00;;;;;15.21;64.57;99562.66;5097506;28;8910;-64
2022/06/07 05:09:53;;;;;;;;;4.00;3.75;;;;;15.31;64.39;99571.44;5096578;28;8850;-64
2022/06/07 05:12:20;;;;;;;;;1.75;0.75;;;;;15.40;64.57;99562.41;5096083;28;8960;-64
2022/06/07 05:14:49;;;;;;;;;3.00;3.00;;;;;15.47;63.98;99568.81;5096676;28;8833;-64
2022/06/07 05:17:17;;;;;;;;;1.00;1.00;;;;;15.55;64.25;99559.97;5094731;28;8840;-64
2022/06/07 05:19:45;;;;;;;;;3.75;3.25;;;;;15.64;63.58;99557.13;5093398;28;8846;-64
2022/06/07 05:22:13;;;;;;;;;1.00;1.00;;;;;15.71;63.90;99557.34;5092995;28;8966;-64
2022/06/07 05:24:41;;;;;;;;;1.00;1.00;;;;;15.79;63.40;99554.66;5092253;28;8987;-64
2022/06/07 05:27:08;;;;;;;;;2.50;2.00;;;;;15.88;62.95;99559.03;5091315;28;9690;-64
2022/06/07 05:29:36;;;;;;;;;3.75;3.00;;;;;15.97;63.01;99558.03;5092400;28;8922;-64
2022/06/07 05:32:04;;;;;;;;;3.00;3.00;;;;;16.06;62.44;99567.78;5092698;28;8849;-64
2022/06/07 05:34:32;;;;;;;;;1.00;1.00;;;;;16.16;62.76;99565.81;5093772;28;9601;-64
2022/06/07 05:37:00;;;;;;;;;3.00;1.50;;;;;16.26;62.00;99562.78;5093989;28;8862;-65
2022/06/07 05:39:28;;;;;;;;;1.50;1.00;;;;;16.34;62.06;99570.03;5093063;28;8848;-64
2022/06/07 05:41:55;;;;;;;;;1.00;1.00;;;;;16.39;62.09;99571.22;5090386;28;8825;-65
2022/06/07 05:44:23;;;;;;;;;2.50;2.50;;;;;16.38;61.90;99572.25;5093074;28;8856;-64
2022/06/07 05:46:52;;;;;;;;;3.00;3.00;;;;;16.33;62.13;99571.84;5093137;28;8987;-64
2022/06/07 05:49:19;;;;;;;;;3.00;3.00;;;;;16.30;61.88;99571.34;5091985;28;8856;-64
2022/06/07 05:51:47;;;;;;;;;3.00;2.00;;;;;16.29;62.20;99578.59;5092014;28;8822;-64
2022/06/07 05:54:15;;;;;;;;;5.50;3.75;;;;;16.30;62.09;99571.34;5092916;28;8964;-64
2022/06/07 05:56:43;;;;;;;;;4.00;3.00;;;;;16.32;62.20;99580.94;5093227;28;8829;-64
2022/06/07 05:59:10;;;;;;;;;1.00;1.00;;;;;16.38;61.75;99574.94;5093278;28;8866;-65
2022/06/07 06:01:38;;;;;;;;;2.00;2.00;;;;;16.46;60.92;99574.94;5093482;28;9685;-65
2022/06/07 06:04:07;;;;;;;;;2.50;2.50;;;;;16.59;61.46;99582.47;5092955;28;8834;-64
2022/06/07 06:06:34;;;;;;;;;2.00;2.00;;;;;16.70;60.81;99579.47;5094075;28;8833;-64
2022/06/07 06:11:48;;;;;;;;;1.50;1.50;;;;;16.86;60.37;99582.94;5094001;28;8842;-64
2022/06/07 06:14:15;;;;;;;;;1.00;1.00;;;;;16.93;60.49;99591.19;5093790;28;8841;-64
2022/06/07 06:16:43;;;;;;;;;3.25;3.00;;;;;16.97;59.98;99595.22;5092385;28;9083;-65
2022/06/07 06:19:11;;;;;;;;;2.00;2.00;;;;;17.03;59.87;99583.78;5094218;28;8840;-64
2022/06/07 06:21:39;;;;;;;;;0.80;0.80;;;;;17.12;59.86;99582.72;5093125;28;8829;-65
2022/06/07 06:24:09;;;;;;;;;1.00;1.00;;;;;17.18;60.03;99588.28;5093935;28;8972;-64
2022/06/07 06:26:38;;;;;;;;;1.00;1.00;;;;;17.25;59.76;99585.72;5094951;28;8873;-65
2022/06/07 06:29:06;;;;;;;;;1.00;1.00;;;;;17.30;59.42;99588.75;5093510;28;8844;-64
2022/06/07 06:31:34;;;;;;;;;1.00;1.00;;;;;17.35;59.42;99586.38;5093989;28;8860;-64
2022/06/07 06:34:02;;;;;;;;;1.40;1.40;;;;;17.37;59.57;99577.13;5093418;28;8964;-65
2022/06/07 06:36:30;;;;;;;;;0.80;0.80;;;;;17.37;58.85;99579.84;5092909;28;8857;-65
2022/06/07 06:38:58;;;;;;;;;3.00;1.40;;;;;17.39;59.03;99577.78;5094087;28;8849;-65
2022/06/07 06:41:25;;;;;;;;;3.00;1.00;;;;;17.43;58.72;99579.13;5091490;28;8985;-64
2022/06/07 06:43:53;;;;;;;;;3.00;3.00;;;;;17.51;58.87;99578.25;5092131;28;8834;-64
2022/06/07 06:46:23;;;;;;;;;1.00;1.00;;;;;17.62;58.04;99575.19;5091954;28;8996;-65
2022/06/07 06:48:51;;;;;;;;;1.00;1.00;;;;;17.71;58.18;99572.28;5091875;28;8840;-64
2022/06/07 06:51:19;;;;;;;;;1.80;1.40;;;;;17.78;57.82;99578.63;5091712;28;8948;-65
2022/06/07 06:53:47;;;;;;;;;1.00;1.00;;;;;17.81;57.71;99577.44;5092014;28;8992;-65
2022/06/07 06:56:15;;;;;;;;;1.00;1.00;;;;;17.81;57.88;99578.28;5094335;28;8838;-65
2022/06/07 06:58:44;;;;;;;;;3.00;3.00;;;;;17.81;57.82;99585.53;5094680;28;8964;-65
2022/06/07 07:01:11;;;;;;;;;3.00;3.00;;;;;17.77;57.91;99576.13;5095030;28;8872;-65
2022/06/07 07:03:39;;;;;;;;;2.40;2.20;;;;;17.71;57.50;99583.06;5093143;28;8862;-66
2022/06/07 07:06:08;;;;;;;;;1.00;1.00;;;;;17.64;57.75;99587.47;5092487;28;8857;-65
2022/06/07 07:08:35;;;;;;;;;1.00;0.80;;;;;17.56;58.03;99583.97;5093012;28;8854;-66
2022/06/07 07:11:03;;;;;;;;;1.80;1.80;;;;;17.50;58.34;99573.88;5092968;28;8833;-66
2022/06/07 07:13:31;;;;;;;;;3.00;3.00;;;;;17.50;58.25;99584.66;5091703;28;9525;-65
2022/06/07 07:15:59;;;;;;;;;3.00;3.00;;;;;17.61;57.60;99560.88;5092247;28;8895;-66
2022/06/07 07:18:27;;;;;;;;;1.80;1.80;;;;;17.77;57.39;99576.94;5092077;28;8853;-65
2022/06/07 07:20:55;;;;;;;;;0.80;0.80;;;;;17.99;56.96;99583.41;5091275;28;8842;-66
2022/06/07 07:23:24;;;;;;;;;3.00;1.00;;;;;18.19;56.46;99571.97;5091787;28;8838;-65
2022/06/07 07:25:51;;;;;;;;;1.00;1.00;;;;;18.35;56.47;99571.91;5090870;28;8866;-66
2022/06/07 07:28:19;;;;;;;;;3.00;1.00;;;;;18.48;55.82;99569.44;5090010;28;8834;-66
2022/06/07 07:30:47;;;;;;;;;3.00;1.00;;;;;18.59;55.65;99574.38;5091016;28;9343;-66
2022/06/07 07:33:15;;;;;;;;;2.60;1.00;;;;;18.63;55.40;99564.94;5090864;28;8887;-66
2022/06/07 07:35:43;;;;;;;;;2.60;1.00;;;;;18.69;55.45;99564.19;5089631;28;8887;-66
2022/06/07 07:38:11;;;;;;;;;1.00;1.00;;;;;18.78;55.15;99560.41;5090162;28;8979;-66
2022/06/07 07:40:39;;;;;;;;;1.00;1.00;;;;;18.91;54.89;99567.84;5091475;28;8854;-66
2022/06/07 07:43:06;;;;;;;;;2.00;1.80;;;;;19.03;54.52;99572.63;5094148;28;8834;-66
2022/06/07 07:45:35;;;;;;;;;1.00;1.00;;;;;19.12;54.64;99566.09;5093397;28;9479;-65
2022/06/07 07:48:07;;;;;;;;;0.60;0.60;;;;;19.22;54.06;99565.88;5093148;28;9203;-66
2022/06/07 07:50:35;;;;;;;;;0.40;0.40;;;;;19.28;53.96;99560.56;5094326;28;8838;-66
2022/06/07 07:53:03;;;;;;;;;1.40;1.00;;;;;19.38;53.75;99553.03;5096193;28;8980;-66
2022/06/07 07:55:31;;;;;;;;;1.00;1.00;;;;;19.50;53.64;99562.31;5095955;28;9662;-66
2022/06/07 07:57:58;;;;;;;;;0.80;0.80;;;;;19.63;53.06;99569.75;5096025;28;8965;-66
2022/06/07 08:00:28;;;;;;;;;1.00;1.00;;;;;19.67;53.17;99555.69;5097669;28;8857;-66
2022/06/07 08:02:56;;;;;;;;;1.00;1.00;;;;;19.76;52.30;99559.97;5096913;28;8857;-66
2022/06/07 08:05:24;;;;;;;;;1.00;1.00;;;;;19.87;52.71;99558.63;5096390;28;8861;-65
2022/06/07 08:07:52;;;;;;;;;0.40;0.40;;;;;20.02;52.22;99554.03;5096513;28;8926;-68
2022/06/07 08:10:24;;;;;;;;;1.00;1.00;;;;;20.19;52.13;99560.88;5097156;28;8850;-66
2022/06/07 08:12:56;;;;;;;;;1.00;0.40;;;;;20.22;51.92;99555.94;5096431;28;8838;-66
2022/06/07 08:15:24;;;;;;;;;1.20;1.20;;;;;20.26;51.78;99564.50;5096599;28;9523;-66
2022/06/07 08:17:52;;;;;;;;;1.00;1.00;;;;;20.22;52.05;99564.03;5097523;28;8960;-66
2022/06/07 08:20:21;;;;;;;;;0.00;0.00;;;;;20.22;51.21;99564.03;5097408;28;8838;-66
2022/06/07 08:22:49;;;;;;;;;1.00;1.00;;;;;20.27;51.75;99560.75;5096475;28;8826;-67
2022/06/07 08:25:17;;;;;;;;;1.00;1.00;;;;;20.35;51.05;99566.91;5095441;28;8830;-66
2022/06/07 08:27:45;;;;;;;;;1.00;0.40;;;;;20.40;50.88;99559.00;5095415;28;8861;-66
2022/06/07 08:30:13;;;;;;;;;0.00;0.00;;;;;20.42;50.61;99565.09;5095778;28;8926;-66
2022/06/07 08:32:41;;;;;;;;;0.00;0.00;;;;;20.48;50.45;99560.75;5095481;28;8830;-66
2022/06/07 08:37:56;;;;;;;;;1.00;1.00;;;;;20.57;50.19;99563.16;5095980;28;8971;-66
2022/06/07 08:40:26;;;;;;;;;0.00;0.00;;;;;20.68;49.65;99559.91;5095792;28;8965;-66
2022/06/07 08:42:54;;;;;;;;;0.00;0.00;;;;;20.88;49.58;99557.38;5097112;28;8952;-66
2022/06/07 08:45:22;;;;;;;;;1.00;0.80;;;;;20.95;49.54;99561.81;5095977;28;8830;-66
2022/06/07 08:47:50;;;;;;;;;1.60;1.00;;;;;21.08;49.32;99549.22;5094258;28;8972;-66
2022/06/07 08:50:18;;;;;;;;;1.00;1.00;;;;;21.19;48.94;99553.25;5095481;28;9512;-66
2022/06/07 08:52:46;;;;;;;;;1.00;1.00;;;;;21.18;49.05;99555.09;5095760;28;9499;-66
2022/06/07 08:55:14;;;;;;;;;0.60;0.60;;;;;21.16;49.11;99561.75;5095796;28;8850;-66
2022/06/07 08:57:41;;;;;;;;;0.00;0.00;;;;;21.20;48.98;99547.59;5096187;28;8833;-66
2022/06/07 09:00:16;;;;;;;;;1.00;1.00;;;;;21.17;48.69;99558.00;5095601;28;8860;-66
2022/06/07 09:02:46;;;;;;;;;0.80;0.60;;;;;21.20;48.59;99552.19;5095643;28;8880;-66
2022/06/07 09:05:14;;;;;;;;;0.20;0.20;;;;;21.24;48.69;99561.59;5095788;28;8979;-66
2022/06/07 09:07:42;;;;;;;;;1.00;1.00;;;;;21.26;48.83;99557.66;5096185;28;8990;-66
2022/06/07 09:12:55;;;;;;;;;0.60;0.60;;;;;21.43;48.47;99550.03;5094920;28;8842;-66
2022/06/07 09:15:23;;;;;;;;;1.00;1.00;;;;;21.48;48.08;99555.69;5094399;28;8969;-65
2022/06/07 09:17:52;;;;;;;;;0.60;0.60;;;;;21.47;48.27;99559.41;5094790;28;8976;-66
2022/06/07 09:20:19;;;;;;;;;3.20;2.40;;;;;21.48;48.37;99555.69;5094864;28;8838;-66
2022/06/07 09:22:51;;;;;;;;;1.00;1.00;;;;;21.49;48.20;99570.91;5093290;28;8838;-66
2022/06/07 09:25:19;;;;;;;;;1.00;1.00;;;;;21.46;48.35;99560.47;5094663;28;9306;-66
2022/06/07 09:27:47;;;;;;;;;1.00;1.00;;;;;21.41;48.65;99562.97;5094244;28;8845;-66
2022/06/07 09:30:15;;;;;;;;;0.40;0.40;;;;;21.18;48.63;99559.69;5093483;28;8846;-66
2022/06/07 09:32:44;;;;;;;;;1.00;1.00;;;;;20.99;48.97;99571.22;5092271;28;8952;-66
2022/06/07 09:35:12;;;;;;;;;1.00;1.00;;;;;20.92;49.30;99564.09;5089463;28;8973;-66
2022/06/07 09:37:40;;;;;;;;;2.40;1.00;;;;;20.80;49.67;99569.19;5092420;28;8832;-66
2022/06/07 09:40:08;;;;;;;;;1.80;1.80;;;;;20.67;49.81;99569.88;5093840;28;8846;-66
2022/06/07 09:42:36;;;;;;;;;1.00;1.00;;;;;20.64;50.00;99565.91;5092168;28;8852;-66
2022/06/07 09:45:04;;;;;;;;;2.40;2.00;;;;;20.76;50.12;99573.28;5091985;28;8869;-66
2022/06/07 09:47:31;;;;;;;;;2.00;2.00;;;;;21.07;49.25;99571.06;5092518;28;8852;-66
2022/06/07 09:50:00;;;;;;;;;1.00;1.00;;;;;21.32;49.26;99566.84;5093280;28;8845;-66
2022/06/07 09:52:28;;;;;;;;;1.00;1.00;;;;;21.53;48.46;99564.03;5093403;28;8850;-66
2022/06/07 09:54:55;;;;;;;;;1.00;1.00;;;;;21.75;48.75;99554.78;5094237;28;8985;-65
2022/06/07 09:57:24;;;;;;;;;1.60;1.60;;;;;21.77;47.98;99568.97;5094178;28;8914;-66
2022/06/07 09:59:52;;;;;;;;;2.40;1.80;;;;;21.61;48.59;99570.16;5092785;28;8842;-66
2022/06/07 10:02:20;;;;;;;;;1.40;1.40;;;;;21.46;48.49;99560.47;5091235;28;8928;-66
2022/06/07 10:04:49;;;;;;;;;2.00;1.80;;;;;21.33;49.03;99563.94;5093094;28;8846;-66
2022/06/07 10:07:17;;;;;;;;;1.00;1.00;;;;;21.19;49.39;99564.06;5092963;28;8996;-66
2022/06/07 10:09:45;;;;;;;;;1.60;1.60;;;;;21.10;49.57;99563.38;5093750;28;8965;-66
2022/06/07 10:12:13;;;;;;;;;0.60;0.60;;;;;21.01;50.22;99572.69;5092411;28;8935;-66
2022/06/07 10:14:47;;;;;;;;;2.00;1.00;;;;;20.88;50.24;99559.06;5091638;28;8868;-66
2022/06/07 10:17:15;;;;;;;;;1.00;1.00;;;;;20.74;50.73;99568.06;5091548;28;8834;-66
2022/06/07 10:19:43;;;;;;;;;1.40;1.40;;;;;20.58;51.03;99556.69;5091455;28;9088;-66
2022/06/07 10:22:11;;;;;;;;;1.00;1.00;;;;;20.56;50.83;99555.22;5092407;28;8838;-66
2022/06/07 10:24:39;;;;;;;;;2.00;1.00;;;;;20.60;50.89;99557.34;5091280;28;8829;-66
2022/06/07 10:27:07;;;;;;;;;1.00;1.00;;;;;20.59;50.49;99549.41;5092799;28;8822;-66
2022/06/07 10:29:36;;;;;;;;;2.00;1.60;;;;;20.59;51.11;99550.25;5093028;28;8963;-66
2022/06/07 10:32:04;;;;;;;;;1.20;1.00;;;;;20.66;51.02;99545.72;5092490;28;8829;-66
2022/06/07 10:34:32;;;;;;;;;1.40;1.20;;;;;20.81;50.39;99546.47;5092645;28;8883;-66
2022/06/07 10:37:00;;;;;;;;;1.00;1.00;;;;;21.08;50.14;99534.81;5092557;28;8961;-66
2022/06/07 10:39:28;;;;;;;;;1.40;1.40;;;;;21.43;49.24;99533.78;5093119;28;8956;-65
2022/06/07 10:41:55;;;;;;;;;2.00;1.60;;;;;21.97;48.53;99526.50;5092635;28;9558;-66
2022/06/07 10:44:24;;;;;;;;;1.80;1.80;;;;;22.49;47.69;99534.78;5089927;28;8830;-66
2022/06/07 10:46:51;;;;;;;;;4.00;1.00;;;;;22.61;47.51;99516.84;5090555;28;9520;-66
2022/06/07 10:49:20;;;;;;;;;2.00;1.20;;;;;22.61;47.93;99531.22;5091539;28;9511;-66
2022/06/07 10:54:39;;;;;;;;;1.00;1.00;;;;;22.25;48.67;99532.63;5091146;28;8860;-66
2022/06/07 10:57:07;;;;;;;;;4.00;2.00;;;;;22.28;48.89;99529.50;5090448;28;8850;-66
2022/06/07 10:59:35;;;;;;;;;1.00;1.00;;;;;22.56;47.97;99531.03;5090035;28;8866;-67
2022/06/07 11:02:03;;;;;;;;;1.60;1.40;;;;;22.69;47.48;99528.31;5090194;28;8875;-66
2022/06/07 11:10:01;;;;;;;;;1.60;1.00;;;;;22.55;47.93;99523.09;5092836;28;8841;-66
2022/06/07 11:12:29;;;;;;;;;2.00;2.00;;;;;22.41;48.63;99524.97;5091605;28;8841;-66
2022/06/07 11:14:57;;;;;;;;;3.20;3.20;;;;;22.28;48.91;99522.19;5092489;28;8838;-66
2022/06/07 11:17:25;;;;;;;;;1.00;1.00;;;;;22.23;49.09;99526.59;5090512;28;9083;-66
2022/06/07 11:19:53;;;;;;;;;1.00;1.00;;;;;22.34;48.73;99515.94;5091493;28;8976;-65
2022/06/07 11:22:21;;;;;;;;;1.80;1.20;;;;;22.63;48.31;99515.56;5090980;28;9632;-65
2022/06/07 11:24:49;;;;;;;;;1.00;1.00;;;;;22.86;48.43;99512.41;5091974;28;8830;-65
2022/06/07 11:27:16;;;;;;;;;1.00;1.00;;;;;22.95;48.09;99516.59;5095272;28;8980;-66
2022/06/07 11:29:44;;;;;;;;;1.60;1.60;;;;;22.87;48.19;99505.94;5096996;28;8834;-66
2022/06/07 11:32:12;;;;;;;;;2.00;2.00;;;;;22.76;48.07;99512.84;5097086;28;8833;-66
2022/06/07 11:34:40;;;;;;;;;1.20;1.20;;;;;23.07;47.92;99501.31;5093884;28;8837;-66
2022/06/07 11:37:08;;;;;;;;;2.00;2.00;;;;;23.16;47.83;99500.06;5096824;28;8841;-66
2022/06/07 11:39:36;;;;;;;;;2.00;2.00;;;;;23.19;47.88;99499.63;5096291;28;9539;-66
2022/06/07 11:42:04;;;;;;;;;1.40;1.40;;;;;23.18;47.39;99500.69;5094052;28;8826;-66
2022/06/07 11:44:32;;;;;;;;;4.00;3.40;;;;;23.00;48.18;99495.88;5094669;28;8837;-66
2022/06/07 11:47:00;;;;;;;;;1.80;1.80;;;;;22.88;48.57;99497.59;5094358;28;8966;-66
2022/06/07 11:49:28;;;;;;;;;1.20;1.20;;;;;23.00;48.16;99495.06;5094474;28;8841;-66
2022/06/07 11:51:55;;;;;;;;;1.00;1.00;;;;;23.62;47.08;99489.88;5094856;28;8833;-66
2022/06/07 11:54:23;;;;;;;;;1.40;1.40;;;;;24.32;46.06;99484.22;5095161;28;9303;-67
2022/06/07 11:56:52;;;;;;;;;1.20;1.20;;;;;24.38;45.69;99491.53;5094015;28;9533;-66
2022/06/07 11:59:20;;;;;;;;;2.60;2.40;;;;;24.19;46.62;99492.50;5094735;28;8923;-66
2022/06/07 12:01:48;;;;;;;;;2.40;2.40;;;;;24.02;46.64;99483.19;5093630;28;8861;-66
2022/06/07 12:04:16;;;;;;;;;0.80;0.80;;;;;24.05;46.41;99491.75;5094523;28;8834;-66
2022/06/07 12:06:44;;;;;;;;;1.20;1.20;;;;;24.37;45.95;99479.81;5095027;28;8841;-66
2022/06/07 12:09:12;;;;;;;;;2.00;2.00;;;;;24.85;45.17;99485.47;5094710;28;8860;-66